Time;durP1;ratioP1;P1;durP2;ratioP2;P2;SDS_P1;SDS_P2;PMS_P1;PMS_P2;Temp;Humidity;BMP_temperature;BMP_pressure;BME280_temperature;BME280_humidity;BME280_pressure;Samples;Min_cycle;Max_cycle;Signal;HPM_P1;HPM_P2
2022/05/10 00:01:03;;;;;;;3.05;1.52;;;17.50;59.00;;;;;;5092025;28;20026;-61
2022/05/10 00:03:38;;;;;;;3.42;1.60;;;17.50;59.10;;;;;;5110223;28;20478;-64
2022/05/10 00:06:05;;;;;;;2.40;1.67;;;17.40;59.20;;;;;;5092852;28;20043;-65
2022/05/10 00:08:32;;;;;;;2.08;1.45;;;17.40;59.50;;;;;;5111152;28;20038;-65
2022/05/10 00:10:57;;;;;;;2.67;1.65;;;17.40;59.70;;;;;;5110823;28;20043;-65
2022/05/10 00:13:27;;;;;;;1.58;1.48;;;17.40;59.90;;;;;;5110043;28;20402;-64
2022/05/10 00:15:52;;;;;;;2.17;1.40;;;17.30;60.00;;;;;;5110109;28;20114;-65
2022/05/10 00:18:20;;;;;;;3.50;1.80;;;17.30;60.20;;;;;;5110623;28;20435;-61
2022/05/10 00:20:47;;;;;;;2.47;1.42;;;17.20;60.30;;;;;;5110482;28;20023;-62
2022/05/10 00:23:13;;;;;;;1.70;1.42;;;17.20;60.50;;;;;;5110024;28;20024;-62
2022/05/10 00:25:39;;;;;;;1.77;1.67;;;17.20;60.60;;;;;;5095015;28;20020;-61
2022/05/10 00:28:05;;;;;;;1.95;1.58;;;17.20;60.80;;;;;;5089691;28;20581;-62
2022/05/10 00:30:32;;;;;;;6.25;1.75;;;17.10;61.50;;;;;;5105546;28;20387;-65
2022/05/10 00:32:57;;;;;;;1.95;1.50;;;17.10;61.00;;;;;;5089245;28;20024;-61
2022/05/10 00:35:29;;;;;;;2.42;1.70;;;17.10;61.10;;;;;;5105740;27;20042;-62
2022/05/10 00:37:57;;;;;;;7.80;1.98;;;17.10;61.20;;;;;;5130055;27;20169;-62
2022/05/10 00:40:31;;;;;;;1.92;1.42;;;17.00;61.30;;;;;;5130943;27;20468;-62
2022/05/10 00:43:33;;;;;;;2.58;2.00;;;17.00;61.30;;;;;;5129833;27;20053;-62
2022/05/10 00:46:07;;;;;;;3.20;2.08;;;17.00;61.40;;;;;;5130054;27;20126;-65
2022/05/10 00:48:48;;;;;;;3.13;1.70;;;16.90;61.60;;;;;;5130417;27;20019;-65
2022/05/10 00:51:41;;;;;;;1.75;1.45;;;16.90;61.70;;;;;;5112138;27;20397;-65
2022/05/10 00:54:18;;;;;;;4.13;1.80;;;16.90;62.50;;;;;;5129650;27;20032;-62
2022/05/10 00:57:14;;;;;;;3.42;1.67;;;16.90;62.10;;;;;;5120014;28;20024;-61
2022/05/10 00:59:56;;;;;;;1.92;1.70;;;16.80;62.30;;;;;;5082161;28;20066;-62
2022/05/10 01:02:48;;;;;;;1.98;1.83;;;16.80;62.50;;;;;;5108155;28;20031;-61
2022/05/10 01:05:25;;;;;;;3.67;2.33;;;16.80;62.60;;;;;;5090601;28;20517;-62
2022/05/10 01:11:19;;;;;;;3.47;1.98;;;16.70;62.80;;;;;;5068776;22;20122;-62
2022/05/10 01:13:54;;;;;;;2.80;2.15;;;16.70;63.00;;;;;;5022036;23;1144650;-61
2022/05/10 01:16:23;;;;;;;2.50;2.25;;;16.60;63.20;;;;;;5049674;28;20036;-62
2022/05/10 01:18:50;;;;;;;4.28;2.45;;;16.60;63.40;;;;;;5051056;28;20052;-65
2022/05/10 01:21:24;;;;;;;4.65;2.22;;;16.60;63.50;;;;;;5070317;28;20031;-65
2022/05/10 01:24:14;;;;;;;6.90;1.98;;;16.60;63.60;;;;;;5069659;28;20038;-65
2022/05/10 01:26:58;;;;;;;2.13;1.92;;;16.60;63.80;;;;;;5069725;28;20036;-65
2022/05/10 01:29:36;;;;;;;2.47;2.25;;;16.50;63.90;;;;;;5069471;28;20039;-65
2022/05/10 01:34:56;;;;;;;3.72;2.65;;;16.50;64.10;;;;;;5069414;28;20035;-62
2022/05/10 01:37:27;;;;;;;4.82;2.53;;;16.50;64.20;;;;;;5051507;28;20063;-61
2022/05/10 01:40:00;;;;;;;2.50;2.30;;;16.50;64.30;;;;;;5051539;28;20023;-61
2022/05/10 01:42:33;;;;;;;4.85;2.10;;;16.50;64.40;;;;;;5069525;28;20024;-61
2022/05/10 01:45:35;;;;;;;3.40;2.67;;;16.40;64.40;;;;;;5069096;28;20503;-61
2022/05/10 01:48:03;;;;;;;2.85;2.03;;;16.40;64.50;;;;;;5050629;28;20462;-61
2022/05/10 01:50:46;;;;;;;2.35;2.10;;;16.40;64.70;;;;;;5073112;28;20033;-61
2022/05/10 01:53:20;;;;;;;3.28;2.63;;;16.40;64.70;;;;;;5073406;28;20035;-62
2022/05/10 01:55:52;;;;;;;6.38;3.08;;;16.30;64.70;;;;;;5072092;28;20020;-65
2022/05/10 01:58:24;;;;;;;4.65;2.60;;;16.30;64.90;;;;;;5053661;28;20092;-65
2022/05/10 02:00:55;;;;;;;5.75;2.65;;;16.30;64.90;;;;;;5053503;28;20079;-65
2022/05/10 02:03:38;;;;;;;4.53;2.30;;;16.30;65.00;;;;;;5053456;28;20025;-65
2022/05/10 02:06:28;;;;;;;3.13;2.83;;;16.20;65.00;;;;;;5053728;28;20104;-65
2022/05/10 02:09:09;;;;;;;3.65;2.63;;;16.20;65.10;;;;;;5071075;28;20407;-65
2022/05/10 02:11:44;;;;;;;4.85;2.78;;;16.20;65.30;;;;;;5073477;28;20032;-65
2022/05/10 02:14:12;;;;;;;3.60;2.72;;;16.10;65.40;;;;;;5072649;28;20044;-65
2022/05/10 02:17:00;;;;;;;3.33;2.63;;;16.10;65.50;;;;;;5073076;28;20024;-65
2022/05/10 02:19:36;;;;;;;5.13;3.50;;;16.10;65.60;;;;;;5055074;28;20037;-65
2022/05/10 02:22:13;;;;;;;2.72;2.47;;;16.10;65.90;;;;;;5073207;28;20020;-65
2022/05/10 02:24:49;;;;;;;4.03;2.78;;;16.00;65.80;;;;;;5055541;28;20139;-65
2022/05/10 02:27:14;;;;;;;4.38;3.08;;;16.00;65.90;;;;;;5073114;28;20029;-65
2022/05/10 02:30:11;;;;;;;4.25;3.45;;;16.00;65.90;;;;;;5072992;28;20035;-65
2022/05/10 02:33:06;;;;;;;4.93;3.03;;;16.00;66.00;;;;;;5064383;28;20085;-65
2022/05/10 02:35:58;;;;;;;4.18;3.15;;;15.90;66.10;;;;;;5072729;28;20017;-65
2022/05/10 02:38:39;;;;;;;6.00;3.08;;;15.90;66.40;;;;;;5072726;28;20028;-65
2022/05/10 02:41:22;;;;;;;4.10;3.35;;;15.90;66.40;;;;;;5072869;28;20042;-65
2022/05/10 02:43:54;;;;;;;4.45;3.00;;;15.80;66.40;;;;;;5071717;28;20036;-65
2022/05/10 02:46:19;;;;;;;5.63;2.90;;;15.80;66.60;;;;;;5063770;28;20028;-65
2022/05/10 02:48:47;;;;;;;4.53;3.03;;;15.80;66.80;;;;;;5033914;28;20025;-65
2022/05/10 02:51:13;;;;;;;4.60;3.47;;;15.80;67.00;;;;;;5053298;28;20025;-65
2022/05/10 02:53:39;;;;;;;5.25;3.45;;;15.80;67.20;;;;;;5053042;28;20480;-65
2022/05/10 02:56:07;;;;;;;5.50;4.22;;;15.80;67.20;;;;;;5053454;28;20372;-65
2022/05/10 02:58:38;;;;;;;4.97;3.00;;;15.70;67.20;;;;;;5071009;28;20029;-65
2022/05/10 03:01:07;;;;;;;4.97;3.35;;;15.70;67.50;;;;;;5072157;28;20028;-65
2022/05/10 03:03:33;;;;;;;3.90;3.30;;;15.70;67.70;;;;;;5071914;28;20035;-61
2022/05/10 03:05:59;;;;;;;4.60;3.30;;;15.70;67.80;;;;;;5072075;28;20099;-61
2022/05/10 03:08:25;;;;;;;4.63;3.20;;;15.70;67.90;;;;;;5072258;28;20111;-61
2022/05/10 03:10:50;;;;;;;6.20;3.55;;;15.70;68.00;;;;;;5072868;28;20044;-65
2022/05/10 03:13:16;;;;;;;6.03;3.83;;;15.70;68.00;;;;;;5072538;28;20067;-65
2022/05/10 03:15:42;;;;;;;5.75;3.55;;;15.70;68.10;;;;;;5072701;28;20024;-65
2022/05/10 03:18:08;;;;;;;3.38;2.85;;;15.60;68.10;;;;;;5072262;28;20091;-65
2022/05/10 03:20:33;;;;;;;3.75;3.40;;;15.60;68.10;;;;;;5038099;28;20051;-65
2022/05/10 03:22:59;;;;;;;4.18;2.97;;;15.60;68.20;;;;;;5072284;28;20031;-65
2022/05/10 03:25:28;;;;;;;4.18;3.20;;;15.60;68.20;;;;;;5072899;28;20035;-65
2022/05/10 03:27:54;;;;;;;4.07;2.88;;;15.60;68.30;;;;;;5072615;28;20021;-65
2022/05/10 03:30:20;;;;;;;5.97;2.80;;;15.60;68.40;;;;;;5071672;28;20046;-61
2022/05/10 03:32:45;;;;;;;4.13;3.63;;;15.60;68.50;;;;;;5070530;28;20040;-61
2022/05/10 03:35:15;;;;;;;3.45;3.15;;;15.60;68.70;;;;;;5067161;28;20020;-61
2022/05/10 03:37:41;;;;;;;2.97;2.67;;;15.50;68.70;;;;;;5051480;28;20021;-61
2022/05/10 03:40:08;;;;;;;5.68;3.38;;;15.50;68.80;;;;;;5051854;28;20215;-61
2022/05/10 03:42:33;;;;;;;3.55;2.95;;;15.50;68.90;;;;;;5033241;28;20045;-61
2022/05/10 03:44:59;;;;;;;6.53;2.88;;;15.50;69.00;;;;;;5052562;28;20045;-66
2022/05/10 03:47:26;;;;;;;9.77;3.05;;;15.50;69.00;;;;;;5070381;28;20040;-65
2022/05/10 03:49:54;;;;;;;5.03;3.63;;;15.50;69.20;;;;;;5072506;28;20472;-65
2022/05/10 03:52:19;;;;;;;7.55;3.22;;;15.50;69.50;;;;;;5072111;28;20043;-66
2022/05/10 03:54:45;;;;;;;3.45;3.03;;;15.40;69.40;;;;;;5071440;28;20467;-66
2022/05/10 03:57:11;;;;;;;3.13;2.75;;;15.40;69.40;;;;;;5038121;28;20112;-67
2022/05/10 03:59:41;;;;;;;2.95;2.65;;;15.40;69.40;;;;;;5051376;28;20124;-67
2022/05/10 04:02:11;;;;;;;5.45;3.38;;;15.40;69.40;;;;;;5051796;28;20048;-66
2022/05/10 04:04:37;;;;;;;8.65;3.72;;;15.40;69.60;;;;;;5052034;28;20036;-65
2022/05/10 04:07:04;;;;;;;4.60;2.53;;;15.40;69.70;;;;;;5052196;28;20087;-65
2022/05/10 04:09:30;;;;;;;4.07;2.85;;;15.40;69.90;;;;;;5051626;28;20032;-65
2022/05/10 04:11:56;;;;;;;3.25;2.95;;;15.40;70.00;;;;;;5050976;28;20040;-65
2022/05/10 04:14:22;;;;;;;4.00;3.60;;;15.40;70.10;;;;;;5051020;28;20501;-66
2022/05/10 04:16:47;;;;;;;4.50;3.15;;;15.40;70.10;;;;;;5051566;28;20440;-65
2022/05/10 04:19:13;;;;;;;4.53;3.25;;;15.40;70.20;;;;;;5050782;28;20040;-65
2022/05/10 04:21:39;;;;;;;3.65;3.28;;;15.40;70.30;;;;;;5051035;28;20033;-65
2022/05/10 04:24:04;;;;;;;6.65;3.55;;;15.40;71.00;;;;;;5051334;28;20037;-65
2022/05/10 04:26:30;;;;;;;4.88;3.83;;;15.40;70.60;;;;;;5068150;28;20400;-65
2022/05/10 04:28:57;;;;;;;4.22;3.55;;;15.40;70.80;;;;;;5071060;28;20551;-65
2022/05/10 04:31:23;;;;;;;3.10;2.55;;;15.40;70.90;;;;;;5053310;28;20036;-65
2022/05/10 04:33:49;;;;;;;4.07;3.55;;;15.40;71.00;;;;;;5070765;28;20040;-66
2022/05/10 04:36:14;;;;;;;3.58;3.28;;;15.40;71.10;;;;;;5053376;28;20037;-65
2022/05/10 04:38:40;;;;;;;5.60;3.70;;;15.40;71.30;;;;;;5071342;28;20059;-65
2022/05/10 04:41:27;;;;;;;5.00;3.38;;;15.40;71.40;;;;;;5071277;28;20028;-65
2022/05/10 04:44:01;;;;;;;3.67;3.05;;;15.50;71.60;;;;;;5070723;28;20368;-65
2022/05/10 04:46:30;;;;;;;6.68;3.78;;;15.50;71.70;;;;;;5053409;28;20039;-65
2022/05/10 04:48:56;;;;;;;4.82;3.30;;;15.50;71.70;;;;;;5069663;28;20035;-61
2022/05/10 04:51:22;;;;;;;5.35;3.80;;;15.50;71.80;;;;;;5069934;28;20029;-61
2022/05/10 04:53:47;;;;;;;5.43;3.90;;;15.60;72.00;;;;;;5051310;28;20039;-61
2022/05/10 04:56:13;;;;;;;5.72;3.90;;;15.60;72.10;;;;;;5070052;28;20032;-61
2022/05/10 04:58:39;;;;;;;4.45;3.92;;;15.60;72.10;;;;;;5069775;28;20107;-61
2022/05/10 05:01:10;;;;;;;4.40;3.75;;;15.60;72.30;;;;;;5051575;28;20033;-62
2022/05/10 05:03:36;;;;;;;6.00;3.83;;;15.70;72.30;;;;;;5069159;28;20024;-61
2022/05/10 05:06:02;;;;;;;5.97;3.85;;;15.70;72.30;;;;;;5069890;28;20383;-62
2022/05/10 05:08:28;;;;;;;3.83;3.17;;;15.80;72.40;;;;;;5052260;28;20307;-66
2022/05/10 05:10:57;;;;;;;5.97;4.22;;;15.80;72.40;;;;;;5071042;28;20395;-66
2022/05/10 05:13:24;;;;;;;4.32;3.13;;;15.80;72.40;;;;;;5049050;28;20056;-66
2022/05/10 05:15:50;;;;;;;7.15;4.28;;;15.90;72.50;;;;;;5050549;28;20021;-66
2022/05/10 05:18:16;;;;;;;4.10;3.40;;;15.90;72.50;;;;;;5050638;28;20032;-66
2022/05/10 05:20:43;;;;;;;7.25;3.65;;;16.00;72.50;;;;;;5049329;28;20052;-66
2022/05/10 05:23:11;;;;;;;4.45;4.03;;;16.00;72.60;;;;;;5048681;28;20025;-62
2022/05/10 05:25:38;;;;;;;5.80;3.80;;;16.10;72.60;;;;;;5049489;28;20043;-61
2022/05/10 05:28:05;;;;;;;7.57;4.72;;;16.10;72.60;;;;;;5049539;28;20068;-61
2022/05/10 05:30:31;;;;;;;4.47;3.40;;;16.10;72.60;;;;;;5048777;28;20077;-61
2022/05/10 05:32:57;;;;;;;5.20;3.92;;;16.20;72.70;;;;;;5047442;28;20032;-61
2022/05/10 05:35:22;;;;;;;8.25;3.92;;;16.20;72.70;;;;;;5049120;28;20051;-61
2022/05/10 05:37:48;;;;;;;5.85;4.07;;;16.30;72.80;;;;;;5049017;28;20025;-61
2022/05/10 05:40:16;;;;;;;5.05;4.45;;;16.30;72.80;;;;;;5049496;28;20021;-61
2022/05/10 05:42:42;;;;;;;5.72;4.05;;;16.40;72.80;;;;;;5048995;28;20495;-61
2022/05/10 05:45:10;;;;;;;7.50;4.55;;;16.40;72.70;;;;;;5048908;28;20029;-61
2022/05/10 05:47:37;;;;;;;4.88;4.18;;;16.50;72.70;;;;;;5048679;28;20029;-62
2022/05/10 05:50:04;;;;;;;4.85;4.20;;;16.50;72.70;;;;;;5049212;28;20569;-65
2022/05/10 05:52:30;;;;;;;7.97;4.90;;;16.60;72.70;;;;;;5049717;28;20028;-66
2022/05/10 05:54:55;;;;;;;5.68;4.18;;;16.60;72.50;;;;;;5050310;28;20537;-66
2022/05/10 05:57:22;;;;;;;6.65;4.55;;;16.60;72.50;;;;;;5048525;28;20162;-66
2022/05/10 05:59:51;;;;;;;8.25;4.57;;;16.60;72.40;;;;;;5049702;28;20017;-66
2022/05/10 06:02:19;;;;;;;6.40;4.00;;;16.70;72.40;;;;;;5049266;28;20029;-65
2022/05/10 06:04:45;;;;;;;10.40;4.50;;;16.70;72.30;;;;;;5049512;28;20124;-66
2022/05/10 06:07:11;;;;;;;6.28;4.65;;;16.70;72.20;;;;;;5048753;28;20052;-66
2022/05/10 06:09:37;;;;;;;7.72;4.53;;;16.80;72.20;;;;;;5049736;28;20448;-66
2022/05/10 06:12:04;;;;;;;7.00;5.10;;;16.80;72.20;;;;;;5049584;28;20090;-66
2022/05/10 06:14:30;;;;;;;7.63;4.72;;;16.80;72.20;;;;;;5062279;28;20057;-66
2022/05/10 06:16:57;;;;;;;6.63;4.40;;;16.90;72.10;;;;;;5069980;28;20029;-66
2022/05/10 06:19:24;;;;;;;5.28;4.72;;;16.90;72.10;;;;;;5051630;28;20127;-66
2022/05/10 06:21:50;;;;;;;5.78;5.10;;;16.90;71.90;;;;;;5068929;28;20039;-62
2022/05/10 06:24:16;;;;;;;9.25;5.30;;;17.00;71.90;;;;;;5068919;28;20024;-61
2022/05/10 06:26:41;;;;;;;6.68;4.30;;;17.00;71.80;;;;;;5069101;28;20086;-61
2022/05/10 06:29:07;;;;;;;5.93;4.10;;;17.10;71.90;;;;;;5050213;28;20483;-61
2022/05/10 06:31:33;;;;;;;5.65;4.10;;;17.10;71.80;;;;;;5068375;28;20036;-61
2022/05/10 06:33:59;;;;;;;10.18;5.88;;;17.10;71.60;;;;;;5068199;28;20033;-61
2022/05/10 06:36:24;;;;;;;6.75;4.30;;;17.20;71.70;;;;;;5054942;28;20119;-62
2022/05/10 06:38:50;;;;;;;10.77;5.35;;;17.20;71.60;;;;;;5072402;28;20098;-66
2022/05/10 06:41:16;;;;;;;7.50;4.63;;;17.20;71.70;;;;;;5073329;28;20029;-66
2022/05/10 06:43:41;;;;;;;6.07;4.70;;;17.20;71.70;;;;;;5072572;28;20509;-61
2022/05/10 06:46:16;;;;;;;4.40;4.00;;;17.30;71.60;;;;;;5072088;28;20099;-62
2022/05/10 06:48:45;;;;;;;8.18;4.57;;;17.40;71.60;;;;;;5072090;28;20360;-62
2022/05/10 06:51:13;;;;;;;6.93;4.50;;;17.40;71.30;;;;;;5054790;28;20119;-61
2022/05/10 06:53:39;;;;;;;6.05;4.30;;;17.50;71.00;;;;;;5061575;28;20025;-61
2022/05/10 06:56:06;;;;;;;8.40;4.57;;;17.50;70.90;;;;;;5052305;28;20063;-62
2022/05/10 06:58:32;;;;;;;8.57;4.50;;;17.60;70.60;;;;;;5052631;28;20033;-62
2022/05/10 07:00:57;;;;;;;7.43;4.38;;;17.70;70.60;;;;;;5033860;28;20067;-61
2022/05/10 07:03:32;;;;;;;13.23;6.10;;;17.70;70.30;;;;;;5051460;28;20033;-61
2022/05/10 07:06:00;;;;;;;6.72;4.72;;;17.70;69.60;;;;;;5034037;28;20021;-62
2022/05/10 07:08:26;;;;;;;4.72;4.28;;;17.80;70.20;;;;;;5052358;28;20029;-61
2022/05/10 07:10:52;;;;;;;5.18;3.92;;;17.90;69.60;;;;;;5051416;28;20025;-66
2022/05/10 07:13:21;;;;;;;4.80;4.05;;;17.90;69.60;;;;;;5062192;28;20052;-66
2022/05/10 07:15:47;;;;;;;6.20;4.35;;;18.00;69.50;;;;;;5059060;28;20040;-66
2022/05/10 07:18:12;;;;;;;4.63;3.38;;;18.00;69.40;;;;;;5062222;28;20488;-66
2022/05/10 07:20:39;;;;;;;5.07;4.13;;;18.10;69.30;;;;;;5053068;28;20029;-66
2022/05/10 07:23:05;;;;;;;5.47;4.13;;;18.10;69.30;;;;;;5051826;28;20033;-66
2022/05/10 07:25:31;;;;;;;5.18;3.72;;;18.20;69.10;;;;;;5052659;28;20158;-66
2022/05/10 07:27:57;;;;;;;5.53;3.28;;;18.30;69.20;;;;;;5065477;28;20025;-66
2022/05/10 07:30:25;;;;;;;4.45;3.85;;;18.30;69.10;;;;;;5065020;28;20031;-65
2022/05/10 07:32:51;;;;;;;6.18;4.03;;;18.40;69.10;;;;;;5051103;28;20032;-62
2022/05/10 07:36:23;;;;;;;5.90;4.43;;;18.40;69.10;;;;;;5053386;28;20013;-62
2022/05/10 07:38:05;;;;;;;5.72;3.60;;;18.50;69.10;;;;;;5052650;28;20103;-62
2022/05/10 07:40:31;;;;;;;6.50;4.15;;;18.50;68.90;;;;;;5051258;28;20029;-61
2022/05/10 07:42:56;;;;;;;4.28;3.75;;;18.60;68.90;;;;;;5060261;28;20033;-61
2022/05/10 07:45:22;;;;;;;8.25;4.32;;;18.70;68.80;;;;;;5061388;28;20041;-61
2022/05/10 07:47:48;;;;;;;6.65;4.05;;;18.80;68.50;;;;;;5067286;28;20142;-62
2022/05/10 07:50:16;;;;;;;4.10;3.70;;;19.00;68.00;;;;;;5055018;28;20064;-61
2022/05/10 07:52:42;;;;;;;8.00;3.40;;;19.20;67.70;;;;;;5057725;28;20028;-61
2022/05/10 07:55:09;;;;;;;6.53;3.80;;;19.30;67.50;;;;;;5056279;28;20029;-61
2022/05/10 07:57:35;;;;;;;5.03;3.35;;;19.40;67.50;;;;;;5069619;28;20555;-66
2022/05/10 08:00:01;;;;;;;7.10;4.05;;;19.50;67.40;;;;;;5070770;28;20100;-66
2022/05/10 08:02:26;;;;;;;6.28;4.90;;;19.50;66.60;;;;;;5070109;28;20064;-61
2022/05/10 08:04:52;;;;;;;4.82;3.53;;;19.60;65.60;;;;;;5050850;28;20064;-61
2022/05/10 08:07:18;;;;;;;9.10;3.15;;;19.60;65.80;;;;;;5050405;28;20171;-61
2022/05/10 08:09:43;;;;;;;5.75;3.90;;;19.70;65.90;;;;;;5051581;28;20060;-62
2022/05/10 08:12:09;;;;;;;4.22;3.05;;;19.80;65.40;;;;;;5051309;28;20135;-61
2022/05/10 08:14:35;;;;;;;4.00;3.55;;;19.90;64.80;;;;;;5060074;28;20049;-61
2022/05/10 08:17:01;;;;;;;7.10;3.38;;;20.10;63.90;;;;;;5056329;28;20029;-61
2022/05/10 08:19:26;;;;;;;3.67;2.25;;;20.20;63.40;;;;;;5067519;28;20024;-61
2022/05/10 08:21:55;;;;;;;3.67;2.80;;;20.20;63.40;;;;;;5047069;28;20495;-61
2022/05/10 08:24:22;;;;;;;3.20;2.90;;;20.30;63.10;;;;;;5050198;28;20064;-61
2022/05/10 08:26:48;;;;;;;3.75;3.00;;;20.30;62.80;;;;;;5050104;28;20836;-61
2022/05/10 08:29:14;;;;;;;3.75;3.30;;;20.40;62.80;;;;;;5031475;28;20061;-62
2022/05/10 08:31:40;;;;;;;3.53;2.92;;;20.50;62.80;;;;;;5049147;28;20534;-61
2022/05/10 08:34:06;;;;;;;7.25;4.22;;;20.60;62.90;;;;;;5050705;28;20025;-61
2022/05/10 08:36:32;;;;;;;3.22;2.72;;;20.70;62.50;;;;;;5050286;28;20029;-61
2022/05/10 08:38:58;;;;;;;3.55;2.53;;;20.70;62.20;;;;;;5049413;28;20483;-61
2022/05/10 08:41:30;;;;;;;3.83;3.10;;;20.80;62.00;;;;;;5050489;28;20040;-61
2022/05/10 08:44:13;;;;;;;3.58;2.95;;;20.80;61.70;;;;;;5056502;28;20440;-61
2022/05/10 08:46:45;;;;;;;5.03;3.10;;;20.90;61.80;;;;;;5053951;28;20474;-60
2022/05/10 08:49:21;;;;;;;;;;;20.90;61.40;;;;;;5031334;28;20040;-61
2022/05/10 08:51:48;;;;;;;4.28;3.10;;;20.90;60.40;;;;;;5067693;28;19931;-60
2022/05/10 08:54:14;;;;;;;3.85;3.13;;;20.80;61.10;;;;;;5051012;28;20029;-61
2022/05/10 08:56:46;;;;;;;10.32;3.05;;;20.80;60.90;;;;;;5056271;28;20023;-60
2022/05/10 08:59:40;;;;;;;3.60;2.55;;;20.80;60.60;;;;;;5067751;28;20020;-60
2022/05/10 09:02:17;;;;;;;3.17;2.63;;;20.80;60.60;;;;;;5072507;28;20024;-60
2022/05/10 09:04:58;;;;;;;2.55;2.35;;;20.80;60.70;;;;;;5060609;28;20033;-61
2022/05/10 09:07:46;;;;;;;2.83;2.60;;;20.80;60.90;;;;;;5065726;28;20436;-60
2022/05/10 09:10:38;;;;;;;2.80;2.15;;;20.80;61.10;;;;;;5061585;28;20033;-60
2022/05/10 09:13:06;;;;;;;5.32;3.30;;;20.80;61.30;;;;;;5066907;28;20365;-65
2022/05/10 09:15:44;;;;;;;4.03;2.28;;;20.80;61.30;;;;;;5070872;28;20016;-65
2022/05/10 09:18:30;;;;;;;5.13;3.47;;;20.90;61.00;;;;;;5059158;28;20043;-66
2022/05/10 09:21:22;;;;;;;3.05;2.63;;;20.90;60.40;;;;;;5064786;28;20082;-65
2022/05/10 09:24:32;;;;;;;3.03;2.42;;;21.00;60.70;;;;;;5068167;28;20529;-65
2022/05/10 09:27:06;;;;;;;2.85;2.33;;;21.10;60.60;;;;;;5070604;28;20048;-65
2022/05/10 09:29:36;;;;;;;8.27;2.58;;;21.20;60.40;;;;;;5067598;28;20027;-65
2022/05/10 09:35:14;;;;;;;2.10;1.90;;;21.30;59.80;;;;;;5068432;28;20027;-65
2022/05/10 09:37:48;;;;;;;2.03;1.65;;;21.40;59.60;;;;;;5068965;28;20024;-65
2022/05/10 09:40:19;;;;;;;3.05;1.83;;;21.50;59.70;;;;;;5069231;28;20056;-65
2022/05/10 09:42:49;;;;;;;4.07;1.95;;;21.60;57.60;;;;;;5052446;28;20028;-65
2022/05/10 09:45:26;;;;;;;3.05;2.25;;;21.80;57.20;;;;;;5068479;28;20074;-65
2022/05/10 09:48:02;;;;;;;1.75;1.65;;;21.90;57.30;;;;;;5068395;28;20038;-65
2022/05/10 09:50:45;;;;;;;5.05;1.80;;;22.00;57.70;;;;;;5068903;28;20056;-65
2022/05/10 09:53:33;;;;;;;2.50;2.10;;;22.20;57.10;;;;;;5068517;28;20028;-65
2022/05/10 09:56:04;;;;;;;2.13;1.95;;;22.40;56.90;;;;;;5068398;28;20082;-65
2022/05/10 09:58:36;;;;;;;5.30;1.75;;;22.50;55.50;;;;;;5069003;28;20043;-65
2022/05/10 10:01:06;;;;;;;4.45;2.53;;;22.60;54.60;;;;;;5068079;28;20464;-60
2022/05/10 10:03:33;;;;;;;2.47;1.73;;;22.60;53.50;;;;;;5067355;28;20024;-61
2022/05/10 10:06:18;;;;;;;5.70;2.40;;;22.70;53.80;;;;;;5068337;28;20097;-61
2022/05/10 10:08:49;;;;;;;1.50;1.40;;;22.80;53.60;;;;;;5068062;28;20343;-61
2022/05/10 10:11:31;;;;;;;2.42;2.00;;;22.90;53.20;;;;;;5070592;28;20409;-60
2022/05/10 10:13:58;;;;;;;1.45;1.35;;;23.00;53.40;;;;;;5057945;28;20499;-61
2022/05/10 10:16:48;;;;;;;1.48;1.38;;;23.20;52.00;;;;;;5052876;28;20067;-62
2022/05/10 10:19:25;;;;;;;2.10;1.67;;;23.20;51.10;;;;;;5052135;28;20021;-60
2022/05/10 10:22:05;;;;;;;6.55;1.55;;;23.20;50.90;;;;;;5051808;28;20021;-61
2022/05/10 10:25:02;;;;;;;2.72;2.33;;;23.40;50.90;;;;;;5052111;28;20111;-61
2022/05/10 10:27:37;;;;;;;2.25;1.90;;;23.50;50.00;;;;;;5052579;28;20380;-61
2022/05/10 10:30:14;;;;;;;2.17;1.98;;;23.60;49.50;;;;;;5052031;28;20040;-65
2022/05/10 10:32:48;;;;;;;1.98;1.77;;;23.70;50.20;;;;;;5051850;28;20479;-65
2022/05/10 10:35:27;;;;;;;2.90;1.88;;;23.80;49.50;;;;;;5052912;28;20379;-65
2022/05/10 10:38:11;;;;;;;2.22;1.70;;;23.80;49.20;;;;;;5052531;28;20020;-65
2022/05/10 10:40:40;;;;;;;4.40;1.88;;;23.90;49.10;;;;;;5055762;28;20029;-60
2022/05/10 10:43:47;;;;;;;2.20;1.88;;;24.00;49.40;;;;;;5051569;28;20039;-61
2022/05/10 10:46:24;;;;;;;1.83;1.60;;;24.10;49.30;;;;;;4991131;28;20535;-61
2022/05/10 10:48:55;;;;;;;2.95;1.70;;;24.10;49.00;;;;;;5059778;28;20106;-60
2022/05/10 10:51:28;;;;;;;2.03;1.85;;;24.20;48.70;;;;;;5060605;28;20048;-61
2022/05/10 10:53:54;;;;;;;5.60;1.60;;;24.20;47.90;;;;;;5068031;28;20379;-60
2022/05/10 10:56:50;;;;;;;3.15;1.90;;;24.30;47.80;;;;;;5069026;28;20394;-61
2022/05/10 10:59:34;;;;;;;1.80;1.70;;;24.30;47.90;;;;;;5064562;28;20024;-61
2022/05/10 11:02:02;;;;;;;1.50;1.38;;;24.30;48.10;;;;;;5068857;28;20497;-62
2022/05/10 11:04:47;;;;;;;1.77;1.60;;;24.30;48.60;;;;;;5071312;28;20028;-61
2022/05/10 11:07:45;;;;;;;3.83;2.22;;;24.50;48.40;;;;;;5068745;28;20036;-61
2022/05/10 11:10:26;;;;;;;3.47;1.77;;;24.60;47.80;;;;;;5055268;28;20091;-62
2022/05/10 11:13:05;;;;;;;1.77;1.67;;;24.80;47.80;;;;;;5071350;28;20387;-61
2022/05/10 11:15:40;;;;;;;1.50;1.35;;;24.80;47.50;;;;;;5074363;28;20044;-65
2022/05/10 11:18:28;;;;;;;1.92;1.70;;;24.70;47.40;;;;;;5069970;28;20032;-65
2022/05/10 11:21:11;;;;;;;2.60;2.22;;;24.60;47.60;;;;;;5069192;28;20561;-65
2022/05/10 11:24:13;;;;;;;2.70;2.13;;;24.60;48.10;;;;;;5069581;28;20021;-65
2022/05/10 11:26:48;;;;;;;2.03;1.60;;;24.60;48.20;;;;;;5069286;28;20020;-65
2022/05/10 11:29:23;;;;;;;1.88;1.63;;;24.50;48.60;;;;;;5054370;28;20430;-65
2022/05/10 11:32:13;;;;;;;2.50;2.05;;;24.50;48.90;;;;;;5075938;28;20493;-66
2022/05/10 11:35:11;;;;;;;2.22;2.03;;;24.50;47.90;;;;;;5068077;28;20096;-62
2022/05/10 11:37:57;;;;;;;3.38;2.25;;;24.50;47.30;;;;;;5004802;28;20099;-61
2022/05/10 11:40:31;;;;;;;1.83;1.60;;;24.50;47.20;;;;;;5059823;28;20877;-61
2022/05/10 11:43:42;;;;;;;1.80;1.70;;;24.40;46.70;;;;;;5068551;28;20056;-61
2022/05/10 11:46:31;;;;;;;4.25;1.77;;;24.40;46.40;;;;;;5054512;28;20035;-62
2022/05/10 11:49:15;;;;;;;3.70;2.00;;;24.40;46.80;;;;;;5066054;28;20056;-61
2022/05/10 11:51:49;;;;;;;1.77;1.48;;;24.40;47.30;;;;;;5068368;28;20040;-59
2022/05/10 11:54:27;;;;;;;1.92;1.73;;;24.40;47.60;;;;;;5069220;28;20032;-60
2022/05/10 11:56:54;;;;;;;2.20;1.55;;;24.50;47.70;;;;;;5081155;28;20049;-62
2022/05/10 11:59:31;;;;;;;2.28;2.08;;;24.50;47.60;;;;;;5081175;28;20020;-61
2022/05/10 12:01:58;;;;;;;1.92;1.75;;;24.40;47.10;;;;;;5082072;28;20024;-60
2022/05/10 12:04:44;;;;;;;1.85;1.75;;;24.40;47.30;;;;;;5076520;28;20024;-60
2022/05/10 12:07:24;;;;;;;2.25;1.88;;;24.40;47.70;;;;;;5075998;28;20063;-60
2022/05/10 12:10:00;;;;;;;1.77;1.67;;;24.50;47.90;;;;;;5083431;28;20471;-59
2022/05/10 12:12:32;;;;;;;1.95;1.85;;;24.50;48.00;;;;;;5037235;28;20079;-60
2022/05/10 12:24:03;;;;;;;3.33;1.83;;;24.70;46.70;;;;;;5069764;28;20158;-61
2022/05/10 12:26:35;;;;;;;2.63;2.15;;;24.80;46.70;;;;;;5072527;28;20033;-61
2022/05/10 12:29:02;;;;;;;2.25;1.70;;;24.80;46.60;;;;;;5065098;28;20748;-61
2022/05/10 12:32:38;;;;;;;2.97;2.15;;;24.80;46.30;;;;;;5124846;27;20134;-62
2022/05/10 12:35:27;;;;;;;2.20;1.88;;;24.80;46.70;;;;;;5109503;27;20023;-62
2022/05/10 12:37:58;;;;;;;2.00;1.63;;;24.80;47.10;;;;;;5055776;27;20035;-60
2022/05/10 12:40:34;;;;;;;2.38;1.90;;;24.90;46.70;;;;;;5108835;28;20043;-60
2022/05/10 12:43:45;;;;;;;2.90;1.98;;;24.90;46.60;;;;;;5117979;27;20084;-60
2022/05/10 12:46:39;;;;;;;1.73;1.60;;;24.80;46.50;;;;;;5102256;27;20042;-61
2022/05/10 12:49:14;;;;;;;3.05;2.42;;;24.80;47.00;;;;;;5113685;27;20063;-60
2022/05/10 12:52:01;;;;;;;2.60;1.77;;;24.80;46.50;;;;;;5123027;27;20019;-60
2022/05/10 12:54:42;;;;;;;2.15;1.85;;;24.70;46.60;;;;;;5116053;27;20016;-60
2022/05/10 12:57:40;;;;;;;1.83;1.70;;;24.80;46.60;;;;;;5116326;27;20076;-60
2022/05/10 13:00:16;;;;;;;1.60;1.50;;;24.90;46.90;;;;;;5032317;27;20059;-60
2022/05/10 13:02:52;;;;;;;1.50;1.35;;;25.10;47.10;;;;;;5101949;27;20016;-61
2022/05/10 13:05:47;;;;;;;1.83;1.63;;;25.30;47.00;;;;;;5110288;27;20019;-61
2022/05/10 13:08:38;;;;;;;2.17;1.85;;;25.30;46.90;;;;;;5122321;27;20470;-61
2022/05/10 13:11:05;;;;;;;4.40;1.50;;;25.30;46.30;;;;;;5123107;27;20462;-60
2022/05/10 13:13:33;;;;;;;6.30;1.90;;;25.20;46.40;;;;;;5101248;28;20116;-61
2022/05/10 13:16:01;;;;;;;1.98;1.75;;;25.10;46.00;;;;;;5124623;27;20023;-61
2022/05/10 13:18:28;;;;;;;2.58;2.38;;;25.00;46.40;;;;;;5118649;27;20026;-65
2022/05/10 13:20:58;;;;;;;2.10;1.90;;;25.00;46.60;;;;;;5119518;27;20108;-65
2022/05/10 13:23:29;;;;;;;1.95;1.85;;;25.00;46.10;;;;;;5118042;27;20024;-65
2022/05/10 13:26:04;;;;;;;3.05;1.80;;;25.00;46.40;;;;;;5114119;27;20629;-65
2022/05/10 13:28:29;;;;;;;2.28;2.08;;;25.00;46.90;;;;;;5121803;27;20027;-65
2022/05/10 13:30:57;;;;;;;1.83;1.65;;;25.00;47.10;;;;;;5104013;28;20176;-65
2022/05/10 13:33:38;;;;;;;2.70;2.20;;;25.00;47.10;;;;;;5112976;27;20024;-65
2022/05/10 13:36:07;;;;;;;6.95;1.67;;;25.00;46.80;;;;;;5122421;27;20037;-61